createdAt,value
2023-04-29T00:05:01.365Z,100.00
2023-04-29T00:10:08.254Z,100.00
2023-04-29T00:15:12.741Z,100.00
2023-04-29T00:20:17.771Z,100.00
2023-04-29T00:25:23.205Z,100.00
2023-04-29T00:30:27.304Z,100.00
2023-04-29T00:35:31.427Z,100.00
2023-04-29T00:40:37.417Z,100.00
2023-04-29T00:45:41.236Z,100.00
2023-04-29T00:50:45.176Z,100.00
2023-04-29T00:55:53.012Z,100.00
2023-04-29T01:00:57.349Z,100.00
2023-04-29T01:06:14.094Z,100.00
2023-04-29T01:11:24.768Z,100.00
2023-04-29T01:16:36.067Z,98.38
2023-04-29T01:21:48.783Z,97.41
2023-04-29T01:27:00.918Z,93.90
2023-04-29T01:32:27.607Z,97.73
2023-04-29T01:37:41.398Z,95.37
2023-04-29T01:42:49.789Z,95.50
2023-04-29T01:47:57.192Z,93.36
2023-04-29T01:53:02.682Z,94.74
2023-04-29T01:58:08.565Z,93.14
2023-04-29T02:03:31.774Z,97.68
2023-04-29T02:08:37.786Z,94.16
2023-04-29T02:13:43.559Z,94.18
2023-04-29T02:18:49.349Z,97.63
2023-04-29T02:23:54.538Z,99.92
2023-04-29T02:29:03.892Z,100.00
2023-04-29T02:34:07.909Z,100.00
2023-04-29T02:39:11.998Z,100.00
2023-04-29T02:44:17.952Z,100.00
2023-04-29T02:49:21.870Z,100.00
2023-04-29T02:54:27.521Z,100.00
2023-04-29T02:59:33.086Z,100.00
2023-04-29T03:04:40.686Z,100.00
2023-04-29T03:09:45.996Z,100.00
2023-04-29T03:14:51.951Z,100.00
2023-04-29T03:19:56.054Z,100.00
2023-04-29T03:25:00.128Z,100.00
2023-04-29T03:30:07.471Z,100.00
2023-04-29T03:35:15.526Z,100.00
2023-04-29T03:40:42.542Z,100.00
2023-04-29T03:45:48.298Z,100.00
2023-04-29T03:50:55.884Z,100.00
2023-04-29T03:56:00.476Z,100.00
2023-04-29T04:01:06.108Z,100.00
2023-04-29T04:06:17.292Z,100.00
2023-04-29T04:11:22.005Z,100.00
2023-04-29T04:16:33.813Z,100.00
2023-04-29T04:21:39.104Z,100.00
2023-04-29T04:26:45.813Z,100.00
2023-04-29T04:31:59.826Z,100.00
2023-04-29T04:37:04.128Z,100.00
2023-04-29T04:42:09.521Z,100.00
2023-04-29T04:47:18.890Z,100.00
2023-04-29T04:52:28.354Z,100.00
2023-04-29T04:57:57.498Z,100.00
2023-04-29T05:03:03.791Z,100.00
2023-04-29T05:08:09.028Z,100.00
2023-04-29T05:13:18.989Z,100.00
2023-04-29T05:18:25.681Z,100.00
2023-04-29T05:23:30.290Z,100.00
2023-04-29T05:28:34.408Z,91.09
2023-04-29T05:33:43.158Z,80.98
2023-04-29T05:38:47.531Z,81.38
2023-04-29T05:43:51.682Z,82.31
2023-04-29T05:48:57.247Z,76.30
2023-04-29T05:54:02.904Z,75.47
2023-04-29T05:59:08.516Z,79.69
2023-04-29T06:04:14.304Z,86.80
2023-04-29T06:09:37.467Z,85.33
2023-04-29T06:14:41.650Z,78.25
2023-04-29T06:19:47.738Z,77.85
2023-04-29T06:24:52.736Z,80.28
2023-04-29T06:30:24.554Z,77.13
2023-04-29T06:35:30.377Z,72.54
2023-04-29T06:40:51.213Z,70.10
2023-04-29T06:46:21.777Z,69.33
2023-04-29T06:51:37.073Z,63.82
2023-04-29T06:56:41.055Z,71.66
2023-04-29T07:01:47.070Z,73.96
2023-04-29T07:06:54.269Z,65.34
2023-04-29T07:11:58.454Z,61.77
2023-04-29T07:17:02.503Z,62.19
2023-04-29T07:22:09.180Z,59.29
2023-04-29T07:27:13.316Z,58.33
2023-04-29T07:32:17.328Z,60.44
2023-04-29T07:37:22.577Z,58.55
2023-04-29T07:42:27.439Z,55.32
2023-04-29T07:47:31.477Z,53.78
2023-04-29T07:52:37.323Z,53.67
2023-04-29T07:57:41.357Z,52.77
2023-04-29T08:02:45.670Z,54.01
2023-04-29T08:07:53.708Z,52.33
2023-04-29T08:12:57.864Z,53.69
2023-04-29T08:18:03.351Z,50.43
2023-04-29T08:23:09.297Z,45.88
2023-04-29T08:28:13.198Z,48.87
2023-04-29T08:33:17.337Z,43.82
2023-04-29T08:38:23.297Z,44.23
2023-04-29T08:43:28.011Z,46.33
2023-04-29T08:48:32.174Z,46.27
2023-04-29T08:53:37.488Z,45.18
2023-04-29T08:58:43.376Z,45.28
2023-04-29T09:03:55.527Z,47.45
2023-04-29T09:09:04.490Z,49.48
2023-04-29T09:14:09.662Z,53.23
2023-04-29T09:19:32.164Z,54.05
2023-04-29T09:24:38.137Z,54.82
2023-04-29T09:30:02.493Z,53.55
2023-04-29T09:35:24.981Z,49.88
2023-04-29T09:40:31.982Z,46.01
2023-04-29T09:45:37.028Z,45.73
2023-04-29T09:50:43.747Z,46.08
2023-04-29T09:56:02.730Z,44.61
2023-04-29T10:01:08.641Z,47.08
2023-04-29T10:06:14.065Z,46.64
2023-04-29T10:11:19.728Z,43.43
2023-04-29T10:16:30.770Z,42.69
2023-04-29T10:21:35.512Z,43.81
2023-04-29T10:26:43.200Z,40.77
2023-04-29T10:31:50.178Z,43.38
2023-04-29T10:36:54.735Z,41.18
2023-04-29T10:42:03.425Z,42.91
2023-04-29T10:47:23.035Z,41.56
2023-04-29T10:52:28.953Z,38.86
2023-04-29T10:57:34.400Z,42.56
2023-04-29T11:02:38.810Z,43.08
2023-04-29T11:07:44.543Z,38.02
2023-04-29T11:12:50.342Z,43.03
2023-04-29T11:17:54.509Z,43.78
2023-04-29T11:22:58.907Z,41.10
2023-04-29T11:28:05.390Z,40.95
2023-04-29T11:33:10.533Z,39.25
2023-04-29T11:38:14.875Z,38.22
2023-04-29T11:43:21.059Z,37.13
2023-04-29T11:48:27.091Z,37.79
2023-04-29T11:53:31.658Z,36.21
2023-04-29T11:58:37.414Z,35.72
2023-04-29T12:03:41.827Z,38.41
2023-04-29T12:08:48.311Z,37.30
2023-04-29T12:13:54.088Z,38.72
2023-04-29T12:18:59.016Z,39.01
2023-04-29T12:24:04.730Z,37.65
2023-04-29T12:29:11.866Z,36.53
2023-04-29T12:34:16.521Z,36.78
2023-04-29T12:39:21.344Z,39.40
2023-04-29T12:44:27.242Z,37.46
2023-04-29T12:49:38.368Z,37.44
2023-04-29T12:54:43.942Z,39.23
2023-04-29T12:59:49.931Z,38.89
2023-04-29T13:04:54.647Z,39.89
2023-04-29T13:09:58.884Z,40.26
2023-04-29T13:15:04.720Z,36.93
2023-04-29T13:20:11.229Z,35.91
2023-04-29T13:25:16.412Z,36.01
2023-04-29T13:30:21.801Z,34.38
2023-04-29T13:35:25.966Z,35.59
2023-04-29T13:40:30.845Z,36.52
2023-04-29T13:45:39.888Z,36.40
2023-04-29T14:01:37.740Z,35.38
2023-04-29T14:06:31.024Z,35.75
2023-04-29T14:11:37.024Z,36.37
2023-04-29T14:16:46.004Z,37.21
2023-04-29T14:21:54.983Z,38.04
2023-04-29T14:26:59.263Z,38.63
2023-04-29T14:32:05.048Z,39.54
2023-04-29T14:37:09.098Z,41.22
2023-04-29T14:42:15.132Z,40.81
2023-04-29T14:47:20.421Z,39.59
2023-04-29T14:52:24.463Z,40.26
2023-04-29T14:57:32.339Z,41.76
2023-04-29T15:02:37.701Z,38.71
2023-04-29T15:07:41.729Z,36.96
2023-04-29T15:12:45.671Z,37.67
2023-04-29T15:17:51.342Z,36.68
2023-04-29T15:22:55.884Z,39.71
2023-04-29T15:28:00.770Z,42.32
2023-04-29T15:33:06.395Z,43.78
2023-04-29T15:38:10.689Z,44.86
2023-04-29T15:43:15.223Z,42.78
2023-04-29T15:48:20.914Z,42.43
2023-04-29T15:53:26.523Z,42.16
2023-04-29T15:58:30.625Z,43.44
2023-04-29T16:03:36.331Z,45.79
2023-04-29T16:08:40.597Z,45.67
2023-04-29T16:13:44.684Z,47.59
2023-04-29T16:18:50.331Z,48.19
2023-04-29T16:23:54.236Z,49.70
2023-04-29T16:28:58.579Z,50.06
2023-04-29T16:34:04.019Z,52.96
2023-04-29T16:39:08.800Z,53.46
2023-04-29T16:44:12.918Z,55.22
2023-04-29T16:49:25.600Z,56.59
2023-04-29T16:54:29.809Z,58.08
2023-04-29T16:59:34.013Z,58.60
2023-04-29T17:04:39.560Z,59.92
2023-04-29T17:09:44.476Z,59.28
2023-04-29T17:14:49.768Z,59.10
2023-04-29T17:19:55.613Z,58.24
2023-04-29T17:25:00.166Z,61.52
2023-04-29T17:30:06.256Z,62.58
2023-04-29T17:35:12.233Z,57.70
2023-04-29T17:40:16.457Z,57.46
2023-04-29T17:45:20.569Z,60.55
2023-04-29T17:50:26.437Z,57.70
2023-04-29T17:55:31.054Z,55.92
2023-04-29T18:00:35.768Z,56.74
2023-04-29T18:05:41.165Z,56.30
2023-04-29T18:10:46.682Z,55.19
2023-04-29T18:15:51.448Z,54.74
2023-04-29T18:20:57.200Z,55.23
2023-04-29T18:26:01.555Z,57.71
2023-04-29T18:31:06.171Z,58.46
2023-04-29T18:36:14.885Z,62.10
2023-04-29T18:41:19.087Z,62.22
2023-04-29T18:46:23.494Z,64.09
2023-04-29T18:51:29.331Z,63.40
2023-04-29T18:56:33.493Z,64.33
2023-04-29T19:01:38.119Z,64.56
2023-04-29T19:06:43.717Z,62.70
2023-04-29T19:11:47.998Z,62.62
2023-04-29T19:16:52.125Z,63.74
2023-04-29T19:21:57.948Z,60.29
2023-04-29T19:27:02.055Z,59.41
2023-04-29T19:32:20.479Z,60.30
2023-04-29T19:37:26.235Z,60.99
2023-04-29T19:42:30.726Z,60.47
2023-04-29T19:47:34.922Z,67.55
2023-04-29T19:52:40.666Z,69.34
2023-04-29T19:57:44.426Z,74.42
2023-04-29T20:02:50.896Z,73.67
2023-04-29T20:07:56.394Z,79.37
2023-04-29T20:13:01.126Z,81.47
2023-04-29T20:18:05.527Z,77.28
2023-04-29T20:23:10.896Z,77.71
2023-04-29T20:28:14.922Z,84.15
2023-04-29T20:33:20.027Z,79.81
2023-04-29T20:38:25.913Z,74.73
2023-04-29T20:43:31.547Z,77.17
2023-04-29T20:48:35.471Z,79.46
2023-04-29T20:53:40.961Z,78.60
2023-04-29T20:58:44.895Z,81.42
2023-04-29T21:03:49.128Z,79.79
2023-04-29T21:08:54.399Z,77.24
2023-04-29T21:13:58.646Z,74.62
2023-04-29T21:19:02.954Z,77.42
2023-04-29T21:24:08.440Z,78.61
2023-04-29T21:29:12.399Z,76.52
2023-04-29T21:34:16.350Z,76.26
2023-04-29T21:39:22.303Z,69.45
2023-04-29T21:44:26.483Z,69.98
2023-04-29T21:49:30.675Z,67.38
2023-04-29T21:54:35.987Z,65.22
2023-04-29T21:59:39.912Z,71.75
2023-04-29T22:04:43.904Z,72.44
2023-04-29T22:09:50.615Z,73.44
2023-04-29T22:14:54.666Z,70.28
2023-04-29T22:19:58.622Z,72.87
2023-04-29T22:25:04.741Z,81.08
2023-04-29T22:30:09.994Z,79.18
2023-04-29T22:35:14.183Z,76.73
2023-04-29T22:40:19.789Z,73.35
2023-04-29T22:45:23.677Z,71.29
2023-04-29T22:50:27.587Z,70.85
2023-04-29T22:55:34.104Z,73.46
2023-04-29T23:00:38.259Z,72.19
2023-04-29T23:05:42.315Z,71.82
2023-04-29T23:10:50.624Z,80.60
2023-04-29T23:15:57.546Z,78.56
2023-04-29T23:21:01.698Z,77.66
2023-04-29T23:26:07.131Z,76.27
2023-04-29T23:31:11.080Z,77.92
2023-04-29T23:36:15.045Z,78.05
2023-04-29T23:41:20.895Z,79.71
2023-04-29T23:46:25.532Z,82.27
2023-04-29T23:51:29.592Z,83.84
2023-04-29T23:56:34.880Z,86.55
